Back to Top

Language: 

My Weather Underground Personal Weather Station Historical Data with Graphs...

Delerius Weather Station Historical Data
Daily Summary for November 7, 2017 Units:  Metric    English   Both
« Previous Day
Next Day »
Daily Weekly Monthly Yearly Custom
  High: Low: Average:
Temperature: 11.4 °C 5.7 °C 8.6 °C
Dew Point: 9.9 °C 4.2 °C 7 °C
Humidity: 94 % 85 % 90 %
Wind Speed: 25.7 km/h 0 km/h 10.3 km/h
Wind Gust: 43.5 km/h - -
Wind:- - SW
Pressure: 1018.5 hPa 1012.4 hPa -
Precipitation: 3.05 mm    
Historical Graphs
 
 
Tabular Data for November 7, 2017
Time Temperature Dew Point Pressure Wind Wind Speed Wind Gust Humidity Rainfall Rate (Hourly) solar Conditions
00:02 7.9 °C 5.6 °C 1017.5 hPa ESE 9.7 km/h 17.7 km/h 85 % 0 mm 0 W/m2
00:07 7.9 °C 5.7 °C 1017.5 hPa ESE 9.7 km/h 12.9 km/h 86 % 0 mm 0 W/m2
00:12 7.9 °C 5.7 °C 1017.5 hPa ESE 6.4 km/h 11.3 km/h 86 % 0 mm 0 W/m2
00:17 7.9 °C 5.7 °C 1017.5 hPa ESE 4.8 km/h 11.3 km/h 86 % 0 mm 0 W/m2
00:22 7.9 °C 5.7 °C 1017.5 hPa SE 3.2 km/h 12.9 km/h 86 % 0 mm 0 W/m2
00:27 8.1 °C 6.1 °C 1017.2 hPa SE 9.7 km/h 14.5 km/h 87 % 0 mm 0 W/m2
00:32 8.2 °C 6.2 °C 1017.2 hPa SSE 6.4 km/h 16.1 km/h 87 % 0 mm 0 W/m2
00:37 8.3 °C 6.3 °C 1017.2 hPa SSE 9.7 km/h 12.9 km/h 87 % 0 mm 0 W/m2
00:42 8.4 °C 6.3 °C 1017.2 hPa SSE 4.8 km/h 9.7 km/h 87 % 0 mm 0 W/m2
00:47 8.4 °C 6.3 °C 1017.2 hPa SSE 8 km/h 16.1 km/h 87 % 0 mm 0 W/m2
00:52 8.6 °C 6.6 °C 1016.8 hPa SE 9.7 km/h 17.7 km/h 87 % 0 mm 0 W/m2
00:57 8.6 °C 6.6 °C 1016.8 hPa SE 9.7 km/h 14.5 km/h 87 % 0 mm 0 W/m2
00:58 8.6 °C 6.6 °C 1016.8 hPa SE 9.7 km/h 14.5 km/h 87 % 0 mm 0 W/m2
01:03 8.6 °C 6.6 °C 1016.8 hPa SE 9.7 km/h 17.7 km/h 87 % 0 mm 0 W/m2
01:08 8.6 °C 6.6 °C 1016.5 hPa SSE 9.7 km/h 12.9 km/h 87 % 0 mm 0 W/m2
01:13 8.6 °C 6.6 °C 1016.5 hPa SSE 9.7 km/h 14.5 km/h 87 % 0 mm 0 W/m2
01:18 8.6 °C 6.6 °C 1016.5 hPa SSE 9.7 km/h 16.1 km/h 87 % 0 mm 0 W/m2
01:23 8.6 °C 6.6 °C 1016.5 hPa SSE 8 km/h 14.5 km/h 87 % 0 mm 0 W/m2
01:28 8.7 °C 6.7 °C 1016.1 hPa South 9.7 km/h 17.7 km/h 87 % 0 mm 0 W/m2
01:33 8.8 °C 6.9 °C 1016.5 hPa SSW 14.5 km/h 30.6 km/h 88 % 0 mm 0 W/m2
01:38 8.9 °C 7 °C 1016.1 hPa SSW 11.3 km/h 20.9 km/h 88 % 0 mm 0 W/m2
01:43 9.1 °C 7.2 °C 1016.1 hPa South 16.1 km/h 25.7 km/h 88 % 0 mm 0 W/m2
01:48 9.2 °C 7.3 °C 1015.8 hPa South 16.1 km/h 30.6 km/h 88 % 0 mm 0 W/m2
01:53 9.2 °C 7.3 °C 1015.8 hPa South 14.5 km/h 24.1 km/h 88 % 0 mm 0 W/m2
01:58 9.3 °C 7.4 °C 1015.8 hPa South 14.5 km/h 20.9 km/h 88 % 0 mm 0 W/m2
02:03 9.3 °C 7.4 °C 1016.1 hPa SSW 16.1 km/h 22.5 km/h 88 % 0 mm 0 W/m2
02:08 9.3 °C 7.4 °C 1016.1 hPa South 16.1 km/h 33.8 km/h 88 % 0 mm 0 W/m2
02:09 9.3 °C 7.4 °C 1015.8 hPa SSE 14.5 km/h 20.9 km/h 88 % 0 mm 0 W/m2
02:14 9.3 °C 7.4 °C 1015.8 hPa South 12.9 km/h 17.7 km/h 88 % 0 mm 0 W/m2
02:19 9.3 °C 7.4 °C 1015.8 hPa SSW 12.9 km/h 19.3 km/h 88 % 0 mm 0 W/m2
02:24 9.4 °C 7.5 °C 1015.8 hPa South 17.7 km/h 25.7 km/h 88 % 0 mm 0 W/m2
02:29 9.5 °C 7.6 °C 1015.5 hPa South 17.7 km/h 29 km/h 88 % 0 mm 0 W/m2
02:34 9.5 °C 7.6 °C 1015.5 hPa South 14.5 km/h 33.8 km/h 88 % 0 mm 0 W/m2
02:39 9.5 °C 7.6 °C 1015.5 hPa South 17.7 km/h 32.2 km/h 88 % 0 mm 0 W/m2
02:44 9.5 °C 7.6 °C 1015.5 hPa SSW 16.1 km/h 30.6 km/h 88 % 0 mm 0 W/m2
02:49 9.5 °C 7.8 °C 1015.5 hPa South 11.3 km/h 17.7 km/h 89 % 0 mm 0 W/m2
02:54 9.5 °C 7.8 °C 1015.1 hPa South 17.7 km/h 30.6 km/h 89 % 0 mm 0 W/m2
02:59 9.5 °C 7.8 °C 1015.1 hPa SSW 20.9 km/h 33.8 km/h 89 % 0 mm 0 W/m2
03:04 9.5 °C 7.8 °C 1015.1 hPa South 16.1 km/h 24.1 km/h 89 % 0 mm 0 W/m2
03:09 9.6 °C 7.9 °C 1015.1 hPa South 17.7 km/h 30.6 km/h 89 % 0 mm 0 W/m2
03:15 9.6 °C 7.9 °C 1015.1 hPa South 17.7 km/h 38.6 km/h 89 % 0 mm 0 W/m2
03:20 9.6 °C 7.9 °C 1015.1 hPa South 16.1 km/h 32.2 km/h 89 % 0 mm 0 W/m2
03:21 9.6 °C 7.9 °C 1015.1 hPa South 17.7 km/h 30.6 km/h 89 % 0 mm 0 W/m2
03:22 9.6 °C 7.9 °C 1015.1 hPa South 16.1 km/h 33.8 km/h 89 % 0 mm 0 W/m2
03:28 9.6 °C 7.9 °C 1014.8 hPa SSW 17.7 km/h 30.6 km/h 89 % 0 mm 0 W/m2
03:32 9.6 °C 7.9 °C 1014.8 hPa SSW 17.7 km/h 30.6 km/h 89 % 0 mm 0 W/m2
03:38 9.7 °C 8 °C 1014.8 hPa South 17.7 km/h 25.7 km/h 89 % 0 mm 0 W/m2
03:43 9.7 °C 8 °C 1014.8 hPa SSW 17.7 km/h 37 km/h 89 % 0 mm 0 W/m2
03:48 9.7 °C 8 °C 1014.8 hPa South 14.5 km/h 22.5 km/h 89 % 0 mm 0 W/m2
03:53 9.7 °C 8 °C 1014.4 hPa South 17.7 km/h 32.2 km/h 89 % 0 mm 0 W/m2
03:58 9.7 °C 8 °C 1014.8 hPa SSW 14.5 km/h 20.9 km/h 89 % 0 mm 0 W/m2
04:03 9.7 °C 8 °C 1014.4 hPa SSW 19.3 km/h 38.6 km/h 89 % 0 mm 0 W/m2
04:08 9.8 °C 8.1 °C 1014.4 hPa SSW 16.1 km/h 32.2 km/h 89 % 0 mm 0 W/m2
04:13 9.8 °C 8.1 °C 1014.4 hPa South 16.1 km/h 30.6 km/h 89 % 0 mm 0 W/m2
04:18 9.7 °C 8 °C 1014.4 hPa SSW 16.1 km/h 32.2 km/h 89 % 0 mm 0 W/m2
04:23 9.7 °C 8 °C 1014.4 hPa South 12.9 km/h 22.5 km/h 89 % 0 mm 0 W/m2
04:28 9.6 °C 7.9 °C 1014.4 hPa South 14.5 km/h 25.7 km/h 89 % 0 mm 0 W/m2
04:33 9.6 °C 7.9 °C 1014.4 hPa South 16.1 km/h 24.1 km/h 89 % 0 mm 0 W/m2
04:38 9.6 °C 7.9 °C 1014.4 hPa South 14.5 km/h 24.1 km/h 89 % 0 mm 0 W/m2
04:43 9.6 °C 7.9 °C 1014.1 hPa South 11.3 km/h 25.7 km/h 89 % 0 mm 0 W/m2
04:48 9.5 °C 7.8 °C 1014.1 hPa South 14.5 km/h 20.9 km/h 89 % 0 mm 0 W/m2
04:53 9.4 °C 7.8 °C 1014.1 hPa SSE 16.1 km/h 24.1 km/h 90 % 0 mm 0 W/m2
04:58 9.3 °C 7.7 °C 1014.1 hPa SSE 16.1 km/h 24.1 km/h 90 % 0 mm 0 W/m2
05:03 9.3 °C 7.7 °C 1013.8 hPa SSE 14.5 km/h 25.7 km/h 90 % 0 mm 0 W/m2
05:09 9.3 °C 7.7 °C 1013.8 hPa SSE 19.3 km/h 32.2 km/h 90 % 0 mm 0 W/m2
05:14 9.3 °C 7.7 °C 1013.8 hPa South 19.3 km/h 40.2 km/h 90 % 0 mm 0 W/m2
05:19 9.3 °C 7.7 °C 1013.8 hPa South 12.9 km/h 20.9 km/h 90 % 0 mm 0 W/m2
05:24 9.3 °C 7.7 °C 1013.8 hPa South 16.1 km/h 24.1 km/h 90 % 0 mm 0 W/m2
05:34 9.5 °C 7.9 °C 1013.8 hPa South 19.3 km/h 33.8 km/h 90 % 0 mm 0 W/m2
05:44 9.6 °C 8.1 °C 1013.4 hPa South 17.7 km/h 32.2 km/h 90 % 0 mm 0 W/m2
05:49 9.6 °C 8.1 °C 1013.4 hPa South 19.3 km/h 32.2 km/h 90 % 0 mm 0 W/m2
05:54 9.6 °C 8.1 °C 1013.4 hPa South 17.7 km/h 40.2 km/h 90 % 0 mm 0 W/m2
05:59 9.7 °C 8.1 °C 1013.4 hPa South 17.7 km/h 30.6 km/h 90 % 0 mm 0 W/m2
06:04 9.7 °C 8.1 °C 1013.4 hPa South 16.1 km/h 24.1 km/h 90 % 0 mm 0 W/m2
06:09 9.7 °C 8.1 °C 1013.4 hPa South 14.5 km/h 32.2 km/h 90 % 0 mm 0 W/m2
06:14 9.7 °C 8.1 °C 1013.4 hPa South 12.9 km/h 25.7 km/h 90 % 0 mm 0 W/m2
06:19 9.8 °C 8.2 °C 1013.4 hPa SSE 14.5 km/h 37 km/h 90 % 0 mm 0 W/m2
06:24 9.8 °C 8.2 °C 1013.4 hPa SSE 14.5 km/h 24.1 km/h 90 % 0 mm 0 W/m2
06:29 9.8 °C 8.2 °C 1013.4 hPa South 9.7 km/h 25.7 km/h 90 % 0 mm 0 W/m2
06:34 9.8 °C 8.2 °C 1013.4 hPa South 14.5 km/h 32.2 km/h 90 % 0 mm 0 W/m2
06:39 9.8 °C 8.2 °C 1013.4 hPa South 17.7 km/h 32.2 km/h 90 % 0 mm 0 W/m2
06:44 9.8 °C 8.2 °C 1013.4 hPa SSE 16.1 km/h 30.6 km/h 90 % 0 mm 0 W/m2
06:49 9.8 °C 8.2 °C 1013.4 hPa SSW 12.9 km/h 24.1 km/h 90 % 0 mm 0 W/m2
06:54 9.8 °C 8.2 °C 1013.4 hPa South 17.7 km/h 33.8 km/h 90 % 0 mm 0 W/m2
06:59 9.8 °C 8.2 °C 1013.1 hPa South 16.1 km/h 30.6 km/h 90 % 0 mm 0 W/m2
07:04 9.8 °C 8.2 °C 1013.4 hPa South 14.5 km/h 24.1 km/h 90 % 0 mm 0 W/m2
07:05 9.8 °C 8.2 °C 1013.4 hPa South 12.9 km/h 24.1 km/h 90 % 0 mm 0 W/m2
07:10 9.8 °C 8.2 °C 1013.4 hPa South 16.1 km/h 29 km/h 90 % 0 mm 0 W/m2
07:15 9.8 °C 8.2 °C 1013.1 hPa SSE 14.5 km/h 32.2 km/h 90 % 0 mm 5 W/m2
07:25 9.8 °C 8.4 °C 1013.4 hPa South 17.7 km/h 32.2 km/h 91 % 0 mm 5 W/m2
07:30 9.9 °C 8.3 °C 1013.4 hPa SSW 17.7 km/h 29 km/h 90 % 0 mm 9 W/m2
07:35 9.9 °C 8.5 °C 1013.1 hPa SSW 22.5 km/h 41.8 km/h 91 % 0 mm 9 W/m2
07:40 10 °C 8.4 °C 1013.1 hPa South 19.3 km/h 33.8 km/h 90 % 0 mm 12 W/m2
07:45 10.1 °C 8.6 °C 1013.1 hPa South 17.7 km/h 32.2 km/h 90 % 0 mm 14 W/m2
07:50 10 °C 8.4 °C 1013.1 hPa SSW 17.7 km/h 30.6 km/h 90 % 0 mm 21 W/m2
07:55 10 °C 8.4 °C 1013.1 hPa South 25.7 km/h 43.5 km/h 90 % 0 mm 32 W/m2
08:00 10.1 °C 8.6 °C 1013.1 hPa South 19.3 km/h 35.4 km/h 90 % 0 mm 25 W/m2
08:05 10.1 °C 8.6 °C 1013.1 hPa SSW 17.7 km/h 38.6 km/h 90 % 0 mm 46 W/m2
08:10 10.1 °C 8.6 °C 1013.1 hPa SSW 19.3 km/h 30.6 km/h 90 % 0 mm 67 W/m2
08:15 10.2 °C 8.4 °C 1013.1 hPa South 17.7 km/h 35.4 km/h 89 % 0 mm 100 W/m2
08:20 10.3 °C 8.6 °C 1013.1 hPa SSW 20.9 km/h 32.2 km/h 89 % 0 mm 107 W/m2
08:25 10.4 °C 8.7 °C 1013.1 hPa SSW 17.7 km/h 32.2 km/h 89 % 0 mm 90 W/m2
08:30 10.5 °C 8.6 °C 1012.8 hPa SSW 17.7 km/h 35.4 km/h 88 % 0 mm 91 W/m2
08:35 10.6 °C 8.7 °C 1013.1 hPa SSW 20.9 km/h 35.4 km/h 88 % 0 mm 95 W/m2
08:40 10.7 °C 8.8 °C 1013.1 hPa South 22.5 km/h 41.8 km/h 88 % 0 mm 95 W/m2
08:45 10.8 °C 8.7 °C 1013.1 hPa South 24.1 km/h 35.4 km/h 87 % 0 mm 107 W/m2
08:50 10.8 °C 8.7 °C 1013.1 hPa SSW 20.9 km/h 35.4 km/h 87 % 0 mm 123 W/m2
08:55 10.9 °C 8.8 °C 1013.1 hPa SSW 19.3 km/h 33.8 km/h 87 % 0 mm 74 W/m2
09:00 10.9 °C 8.8 °C 1013.1 hPa South 19.3 km/h 33.8 km/h 87 % 0 mm 60 W/m2
09:05 10.8 °C 8.7 °C 1013.1 hPa South 17.7 km/h 24.1 km/h 87 % 0 mm 107 W/m2
09:10 10.9 °C 8.8 °C 1012.8 hPa South 19.3 km/h 38.6 km/h 87 % 0 mm 88 W/m2
09:15 10.9 °C 8.8 °C 1013.1 hPa SSW 20.9 km/h 32.2 km/h 87 % 0 mm 84 W/m2
09:20 10.9 °C 8.8 °C 1013.1 hPa South 16.1 km/h 29 km/h 87 % 0 mm 49 W/m2
09:25 10.9 °C 8.8 °C 1013.1 hPa South 16.1 km/h 24.1 km/h 87 % 0 mm 56 W/m2
09:30 10.9 °C 8.8 °C 1013.1 hPa SSW 17.7 km/h 29 km/h 87 % 0 mm 62 W/m2
09:35 10.9 °C 8.8 °C 1013.1 hPa South 14.5 km/h 24.1 km/h 87 % 0 mm 88 W/m2
09:40 10.9 °C 8.8 °C 1013.1 hPa South 12.9 km/h 24.1 km/h 87 % 0 mm 97 W/m2
09:45 11 °C 8.9 °C 1012.8 hPa South 14.5 km/h 24.1 km/h 87 % 0 mm 95 W/m2
09:50 11.1 °C 9 °C 1012.8 hPa SSW 16.1 km/h 25.7 km/h 87 % 0 mm 102 W/m2
09:55 11.2 °C 9.1 °C 1012.8 hPa SSW 17.7 km/h 29 km/h 87 % 0 mm 109 W/m2
10:00 11.2 °C 8.9 °C 1012.8 hPa SSW 16.1 km/h 32.2 km/h 86 % 0 mm 127 W/m2
10:06 11.3 °C 9.1 °C 1013.1 hPa SSW 19.3 km/h 30.6 km/h 86 % 0 mm 63 W/m2
10:11 11.3 °C 9.1 °C 1013.1 hPa South 12.9 km/h 20.9 km/h 86 % 0 mm 65 W/m2
10:16 11.3 °C 9.1 °C 1013.1 hPa South 12.9 km/h 25.7 km/h 86 % 0 mm 100 W/m2
10:21 11.3 °C 9.1 °C 1012.8 hPa South 16.1 km/h 22.5 km/h 86 % 0 mm 91 W/m2
10:26 11.4 °C 9.2 °C 1013.1 hPa South 12.9 km/h 24.1 km/h 86 % 0 mm 86 W/m2
10:31 11.4 °C 9.2 °C 1013.1 hPa South 17.7 km/h 29 km/h 86 % 0 mm 88 W/m2
10:36 11.4 °C 9.2 °C 1013.1 hPa South 16.1 km/h 25.7 km/h 86 % 0 mm 97 W/m2
10:41 11.4 °C 9.3 °C 1012.8 hPa SSE 16.1 km/h 24.1 km/h 87 % 0 mm 114 W/m2
10:46 11.3 °C 9.4 °C 1012.8 hPa SSE 14.5 km/h 20.9 km/h 88 % 0 mm 84 W/m2
10:51 11.2 °C 9.3 °C 1012.8 hPa South 14.5 km/h 24.1 km/h 88 % 0 mm 141 W/m2
10:56 11.2 °C 9.4 °C 1012.8 hPa South 14.5 km/h 24.1 km/h 89 % 0 mm 169 W/m2
11:01 11.2 °C 9.4 °C 1012.8 hPa South 12.9 km/h 19.3 km/h 89 % 0 mm 116 W/m2
11:06 11.3 °C 9.7 °C 1012.8 hPa South 11.3 km/h 17.7 km/h 90 % 0 mm 121 W/m2
11:11 11.2 °C 9.6 °C 1012.8 hPa South 11.3 km/h 20.9 km/h 90 % 0 mm 81 W/m2
11:16 11.2 °C 9.6 °C 1012.8 hPa South 14.5 km/h 22.5 km/h 90 % 0 mm 67 W/m2
11:26 11 °C 9.6 °C 1012.8 hPa South 14.5 km/h 24.1 km/h 91 % 0 mm 54 W/m2
11:31 10.9 °C 9.7 °C 1012.8 hPa South 9.7 km/h 17.7 km/h 92 % 0.25 mm 56 W/m2
11:36 10.9 °C 9.7 °C 1012.8 hPa SSE 11.3 km/h 16.1 km/h 92 % 0.25 mm 65 W/m2
11:41 10.8 °C 9.7 °C 1012.8 hPa South 6.4 km/h 14.5 km/h 93 % 0.25 mm 76 W/m2
11:46 10.8 °C 9.7 °C 1012.8 hPa SSE 4.8 km/h 9.7 km/h 93 % 0.25 mm 93 W/m2
11:51 10.8 °C 9.7 °C 1012.4 hPa SSE 8 km/h 14.5 km/h 93 % 0.25 mm 62 W/m2
11:56 10.8 °C 9.7 °C 1012.4 hPa South 8 km/h 16.1 km/h 93 % 0.25 mm 65 W/m2
12:01 10.8 °C 9.7 °C 1012.4 hPa SSE 6.4 km/h 12.9 km/h 93 % 0.25 mm 62 W/m2
12:06 10.8 °C 9.9 °C 1012.4 hPa South 9.7 km/h 20.9 km/h 94 % 0.25 mm 69 W/m2
12:11 10.8 °C 9.9 °C 1012.8 hPa South 8 km/h 19.3 km/h 94 % 0.51 mm 46 W/m2
12:16 10.7 °C 9.8 °C 1013.1 hPa West 9.7 km/h 16.1 km/h 94 % 0.51 mm 26 W/m2
12:21 10.6 °C 9.7 °C 1013.1 hPa West 16.1 km/h 30.6 km/h 94 % 1.27 mm 25 W/m2
12:26 9.9 °C 8.7 °C 1013.1 hPa WNW 16.1 km/h 24.1 km/h 92 % 1.52 mm 56 W/m2
12:31 9.4 °C 8.3 °C 1013.1 hPa WNW 14.5 km/h 24.1 km/h 93 % 1.52 mm 56 W/m2
12:36 9.1 °C 8 °C 1013.1 hPa WNW 14.5 km/h 22.5 km/h 93 % 1.52 mm 62 W/m2
12:41 8.9 °C 7.8 °C 1013.1 hPa WNW 14.5 km/h 24.1 km/h 93 % 1.52 mm 84 W/m2
12:47 8.8 °C 7.7 °C 1013.1 hPa WNW 14.5 km/h 20.9 km/h 93 % 1.52 mm 65 W/m2
12:52 8.7 °C 7.6 °C 1013.1 hPa WNW 12.9 km/h 20.9 km/h 93 % 1.52 mm 63 W/m2
12:57 8.6 °C 7.6 °C 1013.1 hPa WNW 12.9 km/h 24.1 km/h 93 % 1.52 mm 74 W/m2
13:02 8.6 °C 7.6 °C 1013.1 hPa WNW 12.9 km/h 22.5 km/h 93 % 1.52 mm 62 W/m2
13:07 8.6 °C 7.6 °C 1013.1 hPa WNW 11.3 km/h 20.9 km/h 93 % 1.52 mm 72 W/m2
13:12 8.6 °C 7.6 °C 1013.1 hPa WNW 8 km/h 16.1 km/h 93 % 1.52 mm 77 W/m2
13:17 8.6 °C 7.6 °C 1013.1 hPa West 12.9 km/h 20.9 km/h 93 % 1.27 mm 62 W/m2
13:22 8.6 °C 7.6 °C 1013.1 hPa WNW 12.9 km/h 19.3 km/h 93 % 0.51 mm 49 W/m2
13:27 8.6 °C 7.6 °C 1013.1 hPa WNW 11.3 km/h 17.7 km/h 93 % 0.25 mm 51 W/m2
13:32 8.6 °C 7.6 °C 1013.1 hPa WNW 11.3 km/h 19.3 km/h 93 % 0 mm 62 W/m2
13:37 8.6 °C 7.4 °C 1013.1 hPa WNW 14.5 km/h 20.9 km/h 92 % 0 mm 46 W/m2
13:42 8.6 °C 7.4 °C 1013.1 hPa WNW 9.7 km/h 16.1 km/h 92 % 0 mm 30 W/m2
13:47 8.5 °C 7.3 °C 1013.1 hPa WNW 11.3 km/h 16.1 km/h 92 % 0 mm 33 W/m2
13:52 8.5 °C 7.1 °C 1013.1 hPa WNW 8 km/h 12.9 km/h 91 % 0 mm 44 W/m2
13:57 8.5 °C 7.1 °C 1013.1 hPa WNW 11.3 km/h 17.7 km/h 91 % 0 mm 51 W/m2
14:02 8.5 °C 7.1 °C 1013.1 hPa WNW 4.8 km/h 16.1 km/h 91 % 0 mm 39 W/m2
14:07 8.5 °C 7.1 °C 1013.4 hPa WNW 11.3 km/h 16.1 km/h 91 % 0 mm 26 W/m2
14:12 8.5 °C 7.1 °C 1013.4 hPa WNW 8 km/h 16.1 km/h 91 % 0 mm 30 W/m2
14:17 8.4 °C 7 °C 1013.4 hPa NW 11.3 km/h 20.9 km/h 91 % 0 mm 21 W/m2
14:22 8.4 °C 7 °C 1013.4 hPa WNW 11.3 km/h 17.7 km/h 91 % 0.25 mm 25 W/m2
14:27 8.4 °C 7 °C 1013.4 hPa WNW 8 km/h 14.5 km/h 91 % 0.25 mm 30 W/m2
14:32 8.4 °C 7.2 °C 1013.4 hPa NW 4.8 km/h 12.9 km/h 92 % 0.25 mm 21 W/m2
14:37 8.3 °C 7.1 °C 1013.8 hPa WNW 6.4 km/h 11.3 km/h 92 % 0.51 mm 16 W/m2
14:42 8.3 °C 7.1 °C 1013.8 hPa WNW 8 km/h 14.5 km/h 92 % 0.51 mm 18 W/m2
14:47 8.3 °C 7.1 °C 1013.8 hPa WNW 9.7 km/h 16.1 km/h 92 % 0.51 mm 18 W/m2
14:52 8.2 °C 7 °C 1013.8 hPa WNW 8 km/h 19.3 km/h 92 % 0.51 mm 18 W/m2
14:57 8.2 °C 7.1 °C 1013.8 hPa WNW 8 km/h 12.9 km/h 93 % 0.51 mm 21 W/m2
15:02 8.2 °C 7.1 °C 1013.8 hPa WNW 9.7 km/h 14.5 km/h 93 % 0.51 mm 14 W/m2
15:07 8.1 °C 7.1 °C 1013.8 hPa WNW 8 km/h 14.5 km/h 93 % 0.76 mm 11 W/m2
15:12 8.1 °C 7.1 °C 1014.1 hPa WNW 9.7 km/h 16.1 km/h 93 % 0.76 mm 11 W/m2
15:17 8.1 °C 7.1 °C 1013.8 hPa NW 8 km/h 11.3 km/h 93 % 0.76 mm 12 W/m2
15:22 8 °C 6.9 °C 1013.8 hPa NW 11.3 km/h 19.3 km/h 93 % 0.51 mm 11 W/m2
15:27 7.9 °C 6.8 °C 1014.1 hPa NW 9.7 km/h 17.7 km/h 93 % 0.76 mm 9 W/m2
15:32 7.9 °C 6.8 °C 1014.1 hPa WNW 6.4 km/h 22.5 km/h 93 % 0.76 mm 7 W/m2
15:37 7.8 °C 6.7 °C 1014.1 hPa NW 11.3 km/h 16.1 km/h 93 % 0.51 mm 7 W/m2
15:42 7.7 °C 6.5 °C 1014.1 hPa NW 9.7 km/h 17.7 km/h 92 % 0.51 mm 7 W/m2
15:47 7.7 °C 6.5 °C 1014.4 hPa NW 9.7 km/h 17.7 km/h 92 % 0.51 mm 7 W/m2
15:52 7.6 °C 6.4 °C 1014.4 hPa NW 11.3 km/h 20.9 km/h 92 % 0.51 mm 7 W/m2
15:57 7.4 °C 6.2 °C 1014.4 hPa NW 8 km/h 12.9 km/h 92 % 0.51 mm 5 W/m2
16:02 7.3 °C 6.1 °C 1014.4 hPa NW 8 km/h 11.3 km/h 92 % 0.51 mm 5 W/m2
16:12 7.2 °C 5.8 °C 1014.8 hPa NW 6.4 km/h 12.9 km/h 91 % 0.51 mm 0 W/m2
16:17 7.1 °C 5.7 °C 1014.8 hPa NW 4.8 km/h 9.7 km/h 91 % 0.51 mm 0 W/m2
16:23 7.1 °C 5.7 °C 1014.8 hPa NW 3.2 km/h 8 km/h 91 % 0.51 mm 0 W/m2
16:28 7.1 °C 5.7 °C 1015.1 hPa WNW 6.4 km/h 11.3 km/h 91 % 0.25 mm 0 W/m2
16:33 7 °C 5.6 °C 1015.1 hPa WNW 6.4 km/h 11.3 km/h 91 % 0.25 mm 0 W/m2
16:38 7 °C 5.4 °C 1015.1 hPa NW 8 km/h 12.9 km/h 90 % 0.25 mm 0 W/m2
16:43 7 °C 5.4 °C 1015.1 hPa WNW 3.2 km/h 11.3 km/h 90 % 0.25 mm 0 W/m2
16:48 7 °C 5.4 °C 1015.1 hPa NW 6.4 km/h 11.3 km/h 90 % 0.25 mm 0 W/m2
16:53 6.9 °C 5.4 °C 1015.1 hPa NW 6.4 km/h 14.5 km/h 90 % 0 mm 0 W/m2
16:58 6.9 °C 5.4 °C 1015.1 hPa NW 9.7 km/h 17.7 km/h 90 % 0 mm 0 W/m2
17:03 6.9 °C 5.2 °C 1015.1 hPa NW 8 km/h 16.1 km/h 89 % 0 mm 0 W/m2
17:08 7 °C 5.3 °C 1015.5 hPa NW 4.8 km/h 12.9 km/h 89 % 0 mm 0 W/m2
17:13 7 °C 5.3 °C 1015.5 hPa NW 8 km/h 11.3 km/h 89 % 0 mm 0 W/m2
17:18 6.9 °C 5.1 °C 1015.5 hPa NW 4.8 km/h 12.9 km/h 88 % 0 mm 0 W/m2
17:23 6.9 °C 4.9 °C 1015.5 hPa NW 8 km/h 16.1 km/h 87 % 0 mm 0 W/m2
17:28 6.9 °C 5.1 °C 1015.8 hPa NW 4.8 km/h 9.7 km/h 88 % 0 mm 0 W/m2
17:33 7 °C 5.2 °C 1015.8 hPa NNW 6.4 km/h 11.3 km/h 88 % 0 mm 0 W/m2
17:38 7 °C 5.2 °C 1015.8 hPa NW 8 km/h 12.9 km/h 88 % 0 mm 0 W/m2
17:43 7 °C 5.2 °C 1015.8 hPa NW 4.8 km/h 9.7 km/h 88 % 0 mm 0 W/m2
17:48 7 °C 5.2 °C 1016.1 hPa NW 4.8 km/h 9.7 km/h 88 % 0 mm 0 W/m2
17:53 7 °C 5.2 °C 1016.1 hPa WNW 1.6 km/h 4.8 km/h 88 % 0 mm 0 W/m2
17:58 7 °C 5.3 °C 1016.1 hPa NW 4.8 km/h 9.7 km/h 89 % 0 mm 0 W/m2
18:00 7 °C 5.3 °C 1016.1 hPa NNW 3.2 km/h 8 km/h 89 % 0 mm 0 W/m2
18:05 7 °C 5.3 °C 1016.1 hPa NNW 4.8 km/h 9.7 km/h 89 % 0 mm 0 W/m2
18:10 7 °C 5.3 °C 1016.1 hPa NNW 3.2 km/h 8 km/h 89 % 0 mm 0 W/m2
18:15 6.9 °C 5.2 °C 1016.1 hPa NNW 4.8 km/h 11.3 km/h 89 % 0 mm 0 W/m2
18:21 6.9 °C 5.2 °C 1016.1 hPa NW 4.8 km/h 11.3 km/h 89 % 0 mm 0 W/m2
18:26 6.9 °C 5.2 °C 1016.1 hPa NW 4.8 km/h 12.9 km/h 89 % 0 mm 0 W/m2
18:31 6.9 °C 5.4 °C 1016.1 hPa NW 3.2 km/h 8 km/h 90 % 0 mm 0 W/m2
18:36 6.9 °C 5.4 °C 1016.1 hPa NW 3.2 km/h 8 km/h 90 % 0 mm 0 W/m2
18:46 6.9 °C 5.4 °C 1016.1 hPa NW 4.8 km/h 14.5 km/h 90 % 0 mm 0 W/m2
18:51 6.8 °C 5.3 °C 1016.1 hPa NW 6.4 km/h 11.3 km/h 90 % 0 mm 0 W/m2
18:56 6.8 °C 5.3 °C 1016.1 hPa NW 4.8 km/h 8 km/h 90 % 0 mm 0 W/m2
19:01 6.8 °C 5.3 °C 1016.5 hPa NW 3.2 km/h 8 km/h 90 % 0 mm 0 W/m2
19:06 6.8 °C 5.3 °C 1016.5 hPa Calm   3.2 km/h 90 % 0 mm 0 W/m2
19:11 6.8 °C 5.3 °C 1016.5 hPa NW 3.2 km/h 8 km/h 90 % 0 mm 0 W/m2
19:16 6.8 °C 5.3 °C 1016.5 hPa NW 1.6 km/h 9.7 km/h 90 % 0 mm 0 W/m2
19:21 6.8 °C 5.3 °C 1016.5 hPa NW 1.6 km/h 4.8 km/h 90 % 0 mm 0 W/m2
19:26 6.8 °C 5.3 °C 1016.5 hPa Calm     90 % 0 mm 0 W/m2
19:31 6.7 °C 5.2 °C 1016.8 hPa Calm   3.2 km/h 90 % 0 mm 0 W/m2
19:36 6.7 °C 5.2 °C 1016.8 hPa NW 1.6 km/h 3.2 km/h 90 % 0 mm 0 W/m2
19:41 6.7 °C 5.2 °C 1016.8 hPa Calm   3.2 km/h 90 % 0 mm 0 W/m2
19:46 6.7 °C 5.2 °C 1016.8 hPa Calm   3.2 km/h 90 % 0 mm 0 W/m2
19:51 6.6 °C 5.1 °C 1016.8 hPa Calm   1.6 km/h 90 % 0 mm 0 W/m2
19:56 6.6 °C 5.1 °C 1016.8 hPa Calm   3.2 km/h 90 % 0 mm 0 W/m2
20:01 6.6 °C 5.1 °C 1016.8 hPa Calm   1.6 km/h 90 % 0 mm 0 W/m2
20:06 6.6 °C 5.1 °C 1016.8 hPa NW 3.2 km/h 8 km/h 90 % 0 mm 0 W/m2
20:11 6.6 °C 5.1 °C 1016.8 hPa Calm   1.6 km/h 90 % 0 mm 0 W/m2
20:16 6.6 °C 5.1 °C 1016.8 hPa Calm   1.6 km/h 90 % 0 mm 0 W/m2
20:21 6.6 °C 5.1 °C 1017.2 hPa Calm     90 % 0 mm 0 W/m2
20:26 6.5 °C 5 °C 1017.2 hPa Calm     90 % 0 mm 0 W/m2
20:31 6.5 °C 5 °C 1017.2 hPa Calm     90 % 0 mm 0 W/m2
20:36 6.4 °C 4.9 °C 1017.2 hPa Calm     90 % 0 mm 0 W/m2
20:41 6.4 °C 4.9 °C 1017.2 hPa Calm   1.6 km/h 90 % 0 mm 0 W/m2
20:46 6.4 °C 4.9 °C 1017.2 hPa Calm   3.2 km/h 90 % 0 mm 0 W/m2
20:51 6.4 °C 4.9 °C 1017.2 hPa NNW 1.6 km/h 6.4 km/h 90 % 0 mm 0 W/m2
20:56 6.4 °C 4.9 °C 1017.2 hPa Calm   1.6 km/h 90 % 0 mm 0 W/m2
21:01 6.5 °C 5 °C 1017.2 hPa Calm     90 % 0 mm 0 W/m2
21:06 6.4 °C 4.9 °C 1017.5 hPa Calm   1.6 km/h 90 % 0 mm 0 W/m2
21:11 6.4 °C 4.9 °C 1017.5 hPa Calm     90 % 0 mm 0 W/m2
21:16 6.4 °C 4.9 °C 1017.5 hPa Calm     90 % 0 mm 0 W/m2
21:21 6.4 °C 4.9 °C 1017.5 hPa Calm     90 % 0 mm 0 W/m2
21:26 6.3 °C 4.8 °C 1017.5 hPa Calm     90 % 0 mm 0 W/m2
21:31 6.3 °C 4.8 °C 1017.5 hPa Calm     90 % 0 mm 0 W/m2
21:36 6.3 °C 4.8 °C 1017.5 hPa Calm     90 % 0 mm 0 W/m2
21:42 6.3 °C 4.8 °C 1017.5 hPa Calm     90 % 0 mm 0 W/m2
21:47 6.2 °C 4.7 °C 1017.5 hPa Calm     90 % 0 mm 0 W/m2
21:52 6.2 °C 4.7 °C 1017.5 hPa Calm     90 % 0 mm 0 W/m2
21:57 6.1 °C 4.6 °C 1017.8 hPa Calm     90 % 0 mm 0 W/m2
22:02 6.1 °C 4.7 °C 1017.8 hPa Calm     91 % 0 mm 0 W/m2
22:07 6.1 °C 4.7 °C 1017.5 hPa Calm     91 % 0 mm 0 W/m2
22:12 6.1 °C 4.7 °C 1017.8 hPa Calm     91 % 0 mm 0 W/m2
22:17 6 °C 4.7 °C 1017.8 hPa Calm     91 % 0 mm 0 W/m2
22:22 6 °C 4.7 °C 1017.8 hPa Calm     91 % 0 mm 0 W/m2
22:32 5.9 °C 4.7 °C 1017.8 hPa Calm     92 % 0 mm 0 W/m2
22:37 5.9 °C 4.7 °C 1017.8 hPa Calm     92 % 0 mm 0 W/m2
22:42 5.8 °C 4.6 °C 1017.8 hPa Calm     92 % 0 mm 0 W/m2
22:47 5.8 °C 4.6 °C 1017.8 hPa WNW 1.6 km/h 6.4 km/h 92 % 0 mm 0 W/m2
22:52 5.7 °C 4.5 °C 1017.8 hPa WNW 1.6 km/h 3.2 km/h 92 % 0 mm 0 W/m2
22:57 5.7 °C 4.5 °C 1018.2 hPa WNW 3.2 km/h 8 km/h 92 % 0 mm 0 W/m2
23:02 5.7 °C 4.5 °C 1018.2 hPa WNW 6.4 km/h 11.3 km/h 92 % 0 mm 0 W/m2
23:07 5.7 °C 4.5 °C 1018.2 hPa WNW 6.4 km/h 14.5 km/h 92 % 0 mm 0 W/m2
23:12 5.7 °C 4.3 °C 1018.2 hPa NW 4.8 km/h 9.7 km/h 91 % 0 mm 0 W/m2
23:17 5.7 °C 4.3 °C 1018.2 hPa WNW 4.8 km/h 11.3 km/h 91 % 0 mm 0 W/m2
23:22 5.8 °C 4.4 °C 1018.2 hPa WNW 6.4 km/h 12.9 km/h 91 % 0 mm 0 W/m2
23:27 5.8 °C 4.3 °C 1018.5 hPa WNW 8 km/h 9.7 km/h 90 % 0 mm 0 W/m2
23:32 5.9 °C 4.4 °C 1018.5 hPa WNW 6.4 km/h 11.3 km/h 90 % 0 mm 0 W/m2
23:37 5.9 °C 4.4 °C 1018.5 hPa WNW 6.4 km/h 14.5 km/h 90 % 0 mm 0 W/m2
23:42 5.9 °C 4.2 °C 1018.5 hPa WNW 6.4 km/h 11.3 km/h 89 % 0 mm 0 W/m2
23:47 5.9 °C 4.2 °C 1018.5 hPa WNW 6.4 km/h 11.3 km/h 89 % 0 mm 0 W/m2
23:52 5.9 °C 4.2 °C 1018.5 hPa WNW 6.4 km/h 9.7 km/h 89 % 0 mm 0 W/m2
Delerius-Weather
Compliments of Weather Underground - 2.25 mb

Data updates at regular intervals.